Time;durP1;ratioP1;P1;durP2;ratioP2;P2;SDS_P1;SDS_P2;PMS_P1;PMS_P2;Temp;Humidity;BMP_temperature;BMP_pressure;BME280_temperature;BME280_humidity;BME280_pressure;Samples;Min_cycle;Max_cycle;Signal;HPM_P1;HPM_P2
2024/04/06 00:01:29;;;;;;;;;;;;;;;;;;5090261;28;20268;-62
2024/04/06 00:03:55;;;;;;;;;;;;;;;;;;5092344;28;19928;-62
2024/04/06 00:06:21;;;;;;;;;;;;;;;;;;5087108;28;19934;-62
2024/04/06 00:08:50;;;;;;;;;;;;;;;;;;5084947;28;19930;-62
2024/04/06 00:11:16;;;;;;;;;;;;;;;;;;5091289;28;19920;-62
2024/04/06 00:13:41;;;;;;;;;;;;;;;;;;5093489;28;20027;-62
2024/04/06 00:16:07;;;;;;;;;;;;;;;;;;5088802;28;19924;-62
2024/04/06 00:18:35;;;;;;;;;;;;;;;;;;5082568;28;19931;-62
2024/04/06 00:21:02;;;;;;;;;;;;;;;;;;5091998;28;19920;-62
2024/04/06 00:23:28;;;;;;;;;;;;;;;;;;5094175;28;19950;-62
2024/04/06 00:25:54;;;;;;;;;;;;;;;;;;5092852;28;19977;-62
2024/04/06 00:28:19;;;;;;;;;;;;;;;;;;5092011;28;20394;-62
2024/04/06 00:30:45;;;;;;;;;;;;;;;;;;5090221;28;19932;-62
2024/04/06 00:33:11;;;;;;;;;;;;;;;;;;5085465;28;19946;-61
2024/04/06 00:35:37;;;;;;;;;;;;;;;;;;5071569;28;19924;-61
2024/04/06 00:38:03;;;;;;;;;;;;;;;;;;5049157;28;19928;-61
2024/04/06 00:40:29;;;;;;;;;;;;;;;;;;5071912;28;20391;-62
2024/04/06 00:42:55;;;;;;;;;;;;;;;;;;5072981;28;19932;-62
2024/04/06 00:45:21;;;;;;;;;;;;;;;;;;5068782;28;19932;-62
2024/04/06 00:47:47;;;;;;;;;;;;;;;;;;5067309;28;20287;-61
2024/04/06 00:50:13;;;;;;;;;;;;;;;;;;5092396;28;19924;-61
2024/04/06 00:52:39;;;;;;;;;;;;;;;;;;5075010;28;19924;-61
2024/04/06 00:55:05;;;;;;;;;;;;;;;;;;5093798;28;20288;-61
2024/04/06 00:57:31;;;;;;;;;;;;;;;;;;5071315;28;19920;-61
2024/04/06 00:59:57;;;;;;;;;;;;;;;;;;5090058;28;19920;-61
2024/04/06 01:02:23;;;;;;;;;;;;;;;;;;5087169;28;20015;-61
2024/04/06 01:04:49;;;;;;;;;;;;;;;;;;5090556;28;19934;-61
2024/04/06 01:07:15;;;;;;;;;;;;;;;;;;5084725;28;20283;-61
2024/04/06 01:09:41;;;;;;;;;;;;;;;;;;5083530;28;20031;-61
2024/04/06 01:12:07;;;;;;;;;;;;;;;;;;5090488;28;20009;-61
2024/04/06 01:14:32;;;;;;;;;;;;;;;;;;5087990;28;19933;-61
2024/04/06 01:16:58;;;;;;;;;;;;;;;;;;5087873;28;20355;-61
2024/04/06 01:19:24;;;;;;;;;;;;;;;;;;5059557;28;19924;-62
2024/04/06 01:21:50;;;;;;;;;;;;;;;;;;5051655;28;19930;-62
2024/04/06 01:24:16;;;;;;;;;;;;;;;;;;5090348;28;19954;-61
2024/04/06 01:26:42;;;;;;;;;;;;;;;;;;5093205;28;19926;-61
2024/04/06 01:29:08;;;;;;;;;;;;;;;;;;5093261;28;19926;-62
2024/04/06 01:31:34;;;;;;;;;;;;;;;;;;5093246;28;19976;-61
2024/04/06 01:34:00;;;;;;;;;;;;;;;;;;5090590;28;20420;-61
2024/04/06 01:36:26;;;;;;;;;;;;;;;;;;5088718;28;19920;-61
2024/04/06 01:38:52;;;;;;;;;;;;;;;;;;5071398;28;19920;-62
2024/04/06 01:41:17;;;;;;;;;;;;;;;;;;5082789;28;19954;-62
2024/04/06 01:43:43;;;;;;;;;;;;;;;;;;5073745;28;20429;-62
2024/04/06 01:46:09;;;;;;;;;;;;;;;;;;5067194;28;19927;-62
2024/04/06 01:48:35;;;;;;;;;;;;;;;;;;5073111;28;19927;-62
2024/04/06 01:51:01;;;;;;;;;;;;;;;;;;5052611;28;20295;-62
2024/04/06 01:53:27;;;;;;;;;;;;;;;;;;5086668;28;19931;-62
2024/04/06 01:55:53;;;;;;;;;;;;;;;;;;5089968;28;19920;-62
2024/04/06 01:58:19;;;;;;;;;;;;;;;;;;5088259;28;19920;-62
2024/04/06 02:00:45;;;;;;;;;;;;;;;;;;5072682;28;19969;-62
2024/04/06 02:03:11;;;;;;;;;;;;;;;;;;5090713;28;20016;-62
2024/04/06 02:05:36;;;;;;;;;;;;;;;;;;5091868;28;20081;-62
2024/04/06 02:08:02;;;;;;;;;;;;;;;;;;5089126;28;19919;-62
2024/04/06 02:10:29;;;;;;;;;;;;;;;;;;5058234;28;19954;-62
2024/04/06 02:12:55;;;;;;;;;;;;;;;;;;5089584;28;20367;-62
2024/04/06 02:15:21;;;;;;;;;;;;;;;;;;5089508;28;19928;-62
2024/04/06 02:17:47;;;;;;;;;;;;;;;;;;5090111;28;19924;-62
2024/04/06 02:20:13;;;;;;;;;;;;;;;;;;5073327;28;20011;-62
2024/04/06 02:22:39;;;;;;;;;;;;;;;;;;5091721;28;20050;-62
2024/04/06 02:25:05;;;;;;;;;;;;;;;;;;5079740;28;20470;-62
2024/04/06 02:27:32;;;;;;;;;;;;;;;;;;5090899;28;19924;-62
2024/04/06 02:29:57;;;;;;;;;;;;;;;;;;5090613;28;19920;-62
2024/04/06 02:32:23;;;;;;;;;;;;;;;;;;5092237;28;19966;-62
2024/04/06 02:34:49;;;;;;;;;;;;;;;;;;5089607;28;20428;-62
2024/04/06 02:37:15;;;;;;;;;;;;;;;;;;5090636;28;19920;-62
2024/04/06 02:39:41;;;;;;;;;;;;;;;;;;5086397;28;19965;-62
2024/04/06 02:42:07;;;;;;;;;;;;;;;;;;5059884;28;19924;-62
2024/04/06 02:44:33;;;;;;;;;;;;;;;;;;5089995;28;19928;-62
2024/04/06 02:46:59;;;;;;;;;;;;;;;;;;5072428;28;20355;-63
2024/04/06 02:49:25;;;;;;;;;;;;;;;;;;5089121;28;19931;-62
2024/04/06 02:51:51;;;;;;;;;;;;;;;;;;5090758;28;19927;-62
2024/04/06 02:54:16;;;;;;;;;;;;;;;;;;5091059;28;20581;-62
2024/04/06 02:56:42;;;;;;;;;;;;;;;;;;5085657;28;20016;-62
2024/04/06 02:59:08;;;;;;;;;;;;;;;;;;5082928;28;19999;-62
2024/04/06 03:01:34;;;;;;;;;;;;;;;;;;5083440;28;20332;-62
2024/04/06 03:04:00;;;;;;;;;;;;;;;;;;5072238;28;19928;-62
2024/04/06 03:06:26;;;;;;;;;;;;;;;;;;5089832;28;19924;-62
2024/04/06 03:08:52;;;;;;;;;;;;;;;;;;5087538;28;20408;-62
2024/04/06 03:11:19;;;;;;;;;;;;;;;;;;5086593;28;19965;-62
2024/04/06 03:13:45;;;;;;;;;;;;;;;;;;5074474;28;19924;-62
2024/04/06 03:16:10;;;;;;;;;;;;;;;;;;5092545;28;19927;-62
2024/04/06 03:18:36;;;;;;;;;;;;;;;;;;5076562;28;19946;-62
2024/04/06 03:21:04;;;;;;;;;;;;;;;;;;5094040;28;20375;-62
2024/04/06 03:23:30;;;;;;;;;;;;;;;;;;5094419;28;19931;-62
2024/04/06 03:25:57;;;;;;;;;;;;;;;;;;5090137;28;19923;-62
2024/04/06 03:28:23;;;;;;;;;;;;;;;;;;5090873;28;19920;-62
2024/04/06 03:30:49;;;;;;;;;;;;;;;;;;5091876;28;19955;-62
2024/04/06 03:33:15;;;;;;;;;;;;;;;;;;5085067;28;20453;-62
2024/04/06 03:35:41;;;;;;;;;;;;;;;;;;5085652;28;20784;-62
2024/04/06 03:38:06;;;;;;;;;;;;;;;;;;5071543;28;19920;-62
2024/04/06 03:40:32;;;;;;;;;;;;;;;;;;5073469;28;19928;-62
2024/04/06 03:42:58;;;;;;;;;;;;;;;;;;5086432;28;19931;-62
2024/04/06 03:45:25;;;;;;;;;;;;;;;;;;5087048;28;20019;-62
2024/04/06 03:47:51;;;;;;;;;;;;;;;;;;5094053;28;19920;-62
2024/04/06 03:50:16;;;;;;;;;;;;;;;;;;5092831;28;20405;-62
2024/04/06 03:52:42;;;;;;;;;;;;;;;;;;5093991;28;19920;-62
2024/04/06 03:55:08;;;;;;;;;;;;;;;;;;5080073;22;19966;-62
2024/04/06 03:57:34;;;;;;;;;;;;;;;;;;5046239;28;20075;-62
2024/04/06 04:00:00;;;;;;;;;;;;;;;;;;5054017;28;20016;-62
2024/04/06 04:02:26;;;;;;;;;;;;;;;;;;5034107;28;19931;-62
2024/04/06 04:04:52;;;;;;;;;;;;;;;;;;5053292;28;19925;-63
2024/04/06 04:07:18;;;;;;;;;;;;;;;;;;5050403;28;19955;-62
2024/04/06 04:09:44;;;;;;;;;;;;;;;;;;5049418;28;19924;-62
2024/04/06 04:12:10;;;;;;;;;;;;;;;;;;5049976;28;19929;-62
2024/04/06 04:14:36;;;;;;;;;;;;;;;;;;5050640;28;19925;-62
2024/04/06 04:17:02;;;;;;;;;;;;;;;;;;5052065;28;20004;-62
2024/04/06 04:19:28;;;;;;;;;;;;;;;;;;5051370;28;20361;-62
2024/04/06 04:21:54;;;;;;;;;;;;;;;;;;5052526;28;19920;-62
2024/04/06 04:24:20;;;;;;;;;;;;;;;;;;5053620;28;19999;-62
2024/04/06 04:26:47;;;;;;;;;;;;;;;;;;5016799;28;20556;-62
2024/04/06 04:29:13;;;;;;;;;;;;;;;;;;5048974;28;19927;-62
2024/04/06 04:31:39;;;;;;;;;;;;;;;;;;5050285;28;19970;-62
2024/04/06 04:34:05;;;;;;;;;;;;;;;;;;5034747;28;20428;-62
2024/04/06 04:36:31;;;;;;;;;;;;;;;;;;5052775;28;20004;-62
2024/04/06 04:38:57;;;;;;;;;;;;;;;;;;5050053;28;20054;-62
2024/04/06 04:41:23;;;;;;;;;;;;;;;;;;5052670;28;19927;-62
2024/04/06 04:43:49;;;;;;;;;;;;;;;;;;5047319;28;20391;-62
2024/04/06 04:46:15;;;;;;;;;;;;;;;;;;5051259;28;20289;-62
2024/04/06 04:48:41;;;;;;;;;;;;;;;;;;5048166;28;19971;-62
2024/04/06 04:51:06;;;;;;;;;;;;;;;;;;5050145;28;20009;-62
2024/04/06 04:53:32;;;;;;;;;;;;;;;;;;5058682;28;19991;-62
2024/04/06 04:55:58;;;;;;;;;;;;;;;;;;5048094;28;20423;-62
2024/04/06 04:58:25;;;;;;;;;;;;;;;;;;5043169;28;20017;-62
2024/04/06 05:00:51;;;;;;;;;;;;;;;;;;5051918;28;19948;-62
2024/04/06 05:03:17;;;;;;;;;;;;;;;;;;5052305;28;20355;-62
2024/04/06 05:05:43;;;;;;;;;;;;;;;;;;5051832;28;19935;-62
2024/04/06 05:08:09;;;;;;;;;;;;;;;;;;5034187;28;19927;-61
2024/04/06 05:10:35;;;;;;;;;;;;;;;;;;5031516;28;20265;-61
2024/04/06 05:13:01;;;;;;;;;;;;;;;;;;5049879;28;19921;-61
2024/04/06 05:15:26;;;;;;;;;;;;;;;;;;5039144;28;19940;-61
2024/04/06 05:17:52;;;;;;;;;;;;;;;;;;5051173;28;19944;-61
2024/04/06 05:20:18;;;;;;;;;;;;;;;;;;5051032;28;19975;-61
2024/04/06 05:22:44;;;;;;;;;;;;;;;;;;5051464;28;19946;-61
2024/04/06 05:25:10;;;;;;;;;;;;;;;;;;5034245;28;19943;-61
2024/04/06 05:27:36;;;;;;;;;;;;;;;;;;5049366;28;20283;-61
2024/04/06 05:30:02;;;;;;;;;;;;;;;;;;5049967;28;19921;-62
2024/04/06 05:32:28;;;;;;;;;;;;;;;;;;5049616;28;19921;-61
2024/04/06 05:34:54;;;;;;;;;;;;;;;;;;5045976;28;19924;-61
2024/04/06 05:37:20;;;;;;;;;;;;;;;;;;5050383;28;19940;-62
2024/04/06 05:39:46;;;;;;;;;;;;;;;;;;5052454;28;20384;-61
2024/04/06 05:42:12;;;;;;;;;;;;;;;;;;5043475;28;20368;-61
2024/04/06 05:44:38;;;;;;;;;;;;;;;;;;5034762;28;20319;-61
2024/04/06 05:47:04;;;;;;;;;;;;;;;;;;5049862;28;20023;-62
2024/04/06 05:49:30;;;;;;;;;;;;;;;;;;5015471;28;20017;-62
2024/04/06 05:51:56;;;;;;;;;;;;;;;;;;5050535;28;19963;-62
2024/04/06 05:54:22;;;;;;;;;;;;;;;;;;5047937;28;20575;-62
2024/04/06 05:56:48;;;;;;;;;;;;;;;;;;5046885;28;19921;-62
2024/04/06 05:59:13;;;;;;;;;;;;;;;;;;5041204;28;19925;-62
2024/04/06 06:01:40;;;;;;;;;;;;;;;;;;5046961;28;19925;-62
2024/04/06 06:04:06;;;;;;;;;;;;;;;;;;5031992;28;19951;-62
2024/04/06 06:06:32;;;;;;;;;;;;;;;;;;5049484;28;20006;-62
2024/04/06 06:08:58;;;;;;;;;;;;;;;;;;5051907;28;19983;-63
2024/04/06 06:11:24;;;;;;;;;;;;;;;;;;5048566;28;19921;-62
2024/04/06 06:13:50;;;;;;;;;;;;;;;;;;5050698;28;19939;-60
2024/04/06 06:16:16;;;;;;;;;;;;;;;;;;5045432;28;20295;-60
2024/04/06 06:18:42;;;;;;;;;;;;;;;;;;5052482;28;19924;-60
2024/04/06 06:21:08;;;;;;;;;;;;;;;;;;5047217;28;19921;-61
2024/04/06 06:23:34;;;;;;;;;;;;;;;;;;5050518;28;19952;-60
2024/04/06 06:26:00;;;;;;;;;;;;;;;;;;5050496;28;20561;-61
2024/04/06 06:28:26;;;;;;;;;;;;;;;;;;5050915;28;19975;-62
2024/04/06 06:30:52;;;;;;;;;;;;;;;;;;5048782;28;19927;-61
2024/04/06 06:33:21;;;;;;;;;;;;;;;;;;5032876;28;19974;-61
2024/04/06 06:35:47;;;;;;;;;;;;;;;;;;5052807;28;20471;-62
2024/04/06 06:38:13;;;;;;;;;;;;;;;;;;5039306;28;19987;-61
2024/04/06 06:40:38;;;;;;;;;;;;;;;;;;5050827;28;19975;-61
2024/04/06 06:43:04;;;;;;;;;;;;;;;;;;5047803;28;19943;-62
2024/04/06 06:45:30;;;;;;;;;;;;;;;;;;5037993;28;19936;-61
2024/04/06 06:47:56;;;;;;;;;;;;;;;;;;5048480;28;19936;-61
2024/04/06 06:50:22;;;;;;;;;;;;;;;;;;5028590;28;19921;-62
2024/04/06 06:52:48;;;;;;;;;;;;;;;;;;5042078;28;19925;-62
2024/04/06 06:55:14;;;;;;;;;;;;;;;;;;5047183;28;19931;-62
2024/04/06 06:57:40;;;;;;;;;;;;;;;;;;5047262;28;19929;-62
2024/04/06 07:00:06;;;;;;;;;;;;;;;;;;5044838;28;19928;-61
2024/04/06 07:02:32;;;;;;;;;;;;;;;;;;5045533;28;19921;-62
2024/04/06 07:04:58;;;;;;;;;;;;;;;;;;5026146;28;20023;-62
2024/04/06 07:07:23;;;;;;;;;;;;;;;;;;5046427;28;20377;-62
2024/04/06 07:09:49;;;;;;;;;;;;;;;;;;5048033;28;19950;-62
2024/04/06 07:12:15;;;;;;;;;;;;;;;;;;5041040;28;19936;-62
2024/04/06 07:14:41;;;;;;;;;;;;;;;;;;5045408;28;19935;-61
2024/04/06 07:17:07;;;;;;;;;;;;;;;;;;5049705;28;19944;-61
2024/04/06 07:19:33;;;;;;;;;;;;;;;;;;5047417;28;19920;-61
2024/04/06 07:21:59;;;;;;;;;;;;;;;;;;5025823;28;19928;-61
2024/04/06 07:24:25;;;;;;;;;;;;;;;;;;5048304;28;19925;-61
2024/04/06 07:26:51;;;;;;;;;;;;;;;;;;5046952;28;19933;-61
2024/04/06 07:29:17;;;;;;;;;;;;;;;;;;5035270;28;19921;-61
2024/04/06 07:31:42;;;;;;;;;;;;;;;;;;5031221;28;19921;-62
2024/04/06 07:34:08;;;;;;;;;;;;;;;;;;5031254;28;20482;-62
2024/04/06 07:36:34;;;;;;;;;;;;;;;;;;5039275;28;19971;-61
2024/04/06 07:39:00;;;;;;;;;;;;;;;;;;5032606;28;19921;-61
2024/04/06 07:41:27;;;;;;;;;;;;;;;;;;5049719;28;19925;-62
2024/04/06 07:43:53;;;;;;;;;;;;;;;;;;5027216;28;20379;-62
2024/04/06 07:46:18;;;;;;;;;;;;;;;;;;5045646;28;19928;-62
2024/04/06 07:48:44;;;;;;;;;;;;;;;;;;5045646;28;19921;-62
2024/04/06 07:51:10;;;;;;;;;;;;;;;;;;5044266;28;19921;-61
2024/04/06 07:53:36;;;;;;;;;;;;;;;;;;5047967;28;19925;-62
2024/04/06 07:56:02;;;;;;;;;;;;;;;;;;5042312;28;20299;-62
2024/04/06 07:58:28;;;;;;;;;;;;;;;;;;5030738;28;19925;-61
2024/04/06 08:00:54;;;;;;;;;;;;;;;;;;5047033;28;19966;-62
2024/04/06 08:03:20;;;;;;;;;;;;;;;;;;5052765;28;19978;-62
2024/04/06 08:05:46;;;;;;;;;;;;;;;;;;5053917;28;19951;-62
2024/04/06 08:08:12;;;;;;;;;;;;;;;;;;5052829;28;19921;-62
2024/04/06 08:10:38;;;;;;;;;;;;;;;;;;5048890;28;20268;-62
2024/04/06 08:13:04;;;;;;;;;;;;;;;;;;5043599;28;19929;-62
2024/04/06 08:15:30;;;;;;;;;;;;;;;;;;5039983;28;19975;-62
2024/04/06 08:17:56;;;;;;;;;;;;;;;;;;5064325;28;20346;-62
2024/04/06 08:20:22;;;;;;;;;;;;;;;;;;5051301;28;19925;-62
2024/04/06 08:22:48;;;;;;;;;;;;;;;;;;5036137;28;19921;-62
2024/04/06 08:25:14;;;;;;;;;;;;;;;;;;5043889;28;19933;-62
2024/04/06 08:27:40;;;;;;;;;;;;;;;;;;5030678;28;19928;-62
2024/04/06 08:30:06;;;;;;;;;;;;;;;;;;5049534;28;19932;-62
2024/04/06 08:32:31;;;;;;;;;;;;;;;;;;5053542;28;19925;-62
2024/04/06 08:34:57;;;;;;;;;;;;;;;;;;5060462;28;19921;-62
2024/04/06 08:37:23;;;;;;;;;;;;;;;;;;5053322;28;19921;-62
2024/04/06 08:39:49;;;;;;;;;;;;;;;;;;5052960;28;19932;-62
2024/04/06 08:42:15;;;;;;;;;;;;;;;;;;5028254;28;19921;-62
2024/04/06 08:44:41;;;;;;;;;;;;;;;;;;5051310;28;20540;-62
2024/04/06 08:47:07;;;;;;;;;;;;;;;;;;5052974;28;19932;-62
2024/04/06 08:49:33;;;;;;;;;;;;;;;;;;5048004;28;19948;-63
2024/04/06 08:51:59;;;;;;;;;;;;;;;;;;5055748;28;20303;-63
2024/04/06 08:54:25;;;;;;;;;;;;;;;;;;5052832;28;19936;-63
2024/04/06 08:56:51;;;;;;;;;;;;;;;;;;5028255;28;19928;-63
2024/04/06 08:59:17;;;;;;;;;;;;;;;;;;5050352;28;19935;-63
2024/04/06 09:01:44;;;;;;;;;;;;;;;;;;5040158;28;20414;-63
2024/04/06 09:04:10;;;;;;;;;;;;;;;;;;5040885;28;19929;-63
2024/04/06 09:06:36;;;;;;;;;;;;;;;;;;5053586;28;19936;-64
2024/04/06 09:09:02;;;;;;;;;;;;;;;;;;5052605;28;19921;-64
2024/04/06 09:11:28;;;;;;;;;;;;;;;;;;5033624;28;19920;-64
2024/04/06 09:13:58;;;;;;;;;;;;;;;;;;5030837;28;20356;-64
2024/04/06 09:16:24;;;;;;;;;;;;;;;;;;5047988;28;19928;-63
2024/04/06 09:18:50;;;;;;;;;;;;;;;;;;5046941;28;19925;-63
2024/04/06 09:21:15;;;;;;;;;;;;;;;;;;5049581;28;20269;-63
2024/04/06 09:23:41;;;;;;;;;;;;;;;;;;5049559;28;19921;-63
2024/04/06 09:26:08;;;;;;;;;;;;;;;;;;5052970;28;19928;-63
2024/04/06 09:28:34;;;;;;;;;;;;;;;;;;5033836;28;19928;-63
2024/04/06 09:31:01;;;;;;;;;;;;;;;;;;5043206;28;19921;-62
2024/04/06 09:33:27;;;;;;;;;;;;;;;;;;5042350;28;19932;-62
2024/04/06 09:35:53;;;;;;;;;;;;;;;;;;5028055;28;19921;-61
2024/04/06 09:38:19;;;;;;;;;;;;;;;;;;5028415;28;19963;-61
2024/04/06 09:40:45;;;;;;;;;;;;;;;;;;5033253;28;20042;-61
2024/04/06 09:43:11;;;;;;;;;;;;;;;;;;5052570;28;20466;-62
2024/04/06 09:45:36;;;;;;;;;;;;;;;;;;5042310;28;20297;-61
2024/04/06 09:48:02;;;;;;;;;;;;;;;;;;5048083;28;20380;-61
2024/04/06 09:50:28;;;;;;;;;;;;;;;;;;5052648;28;19971;-62
2024/04/06 09:52:54;;;;;;;;;;;;;;;;;;5050543;28;19925;-61
2024/04/06 09:55:20;;;;;;;;;;;;;;;;;;5051293;28;19974;-63
2024/04/06 09:57:46;;;;;;;;;;;;;;;;;;5042697;28;19933;-64
2024/04/06 10:00:12;;;;;;;;;;;;;;;;;;5015930;28;20909;-63
2024/04/06 10:02:38;;;;;;;;;;;;;;;;;;5031119;28;20007;-63
2024/04/06 10:05:05;;;;;;;;;;;;;;;;;;5045405;28;19925;-63
2024/04/06 10:07:30;;;;;;;;;;;;;;;;;;5050322;28;20774;-63
2024/04/06 10:09:56;;;;;;;;;;;;;;;;;;5041575;28;20016;-63
2024/04/06 10:12:22;;;;;;;;;;;;;;;;;;5028822;28;20007;-62
2024/04/06 10:14:48;;;;;;;;;;;;;;;;;;5048725;28;19921;-62
2024/04/06 10:17:14;;;;;;;;;;;;;;;;;;5039952;28;19921;-63
2024/04/06 10:19:40;;;;;;;;;;;;;;;;;;5022046;28;19924;-63
2024/04/06 10:22:06;;;;;;;;;;;;;;;;;;5043270;28;20016;-63
2024/04/06 10:24:32;;;;;;;;;;;;;;;;;;5036517;28;20261;-62
2024/04/06 10:26:58;;;;;;;;;;;;;;;;;;5046692;28;19976;-62
2024/04/06 10:29:24;;;;;;;;;;;;;;;;;;5050883;28;20003;-62
2024/04/06 10:31:50;;;;;;;;;;;;;;;;;;5048740;28;19921;-62
2024/04/06 10:34:16;;;;;;;;;;;;;;;;;;5040740;28;20256;-62
2024/04/06 10:36:42;;;;;;;;;;;;;;;;;;5051291;28;19925;-62
2024/04/06 10:39:08;;;;;;;;;;;;;;;;;;5050945;28;19927;-62
2024/04/06 10:41:34;;;;;;;;;;;;;;;;;;5044466;28;19928;-62
2024/04/06 10:44:01;;;;;;;;;;;;;;;;;;5036513;28;20430;-62
2024/04/06 10:46:27;;;;;;;;;;;;;;;;;;5050561;28;20007;-62
2024/04/06 10:48:54;;;;;;;;;;;;;;;;;;5037679;28;20051;-62
2024/04/06 10:51:20;;;;;;;;;;;;;;;;;;5021970;28;19921;-62
2024/04/06 10:53:46;;;;;;;;;;;;;;;;;;5051040;28;19948;-62
2024/04/06 10:56:12;;;;;;;;;;;;;;;;;;5048370;28;19928;-63
2024/04/06 10:58:38;;;;;;;;;;;;;;;;;;5043565;28;19929;-63
2024/04/06 11:01:04;;;;;;;;;;;;;;;;;;5043706;28;19967;-62
2024/04/06 11:03:29;;;;;;;;;;;;;;;;;;5037882;28;19998;-63
2024/04/06 11:05:55;;;;;;;;;;;;;;;;;;5010145;28;19971;-63
2024/04/06 11:08:21;;;;;;;;;;;;;;;;;;5050008;28;19931;-63
2024/04/06 11:10:47;;;;;;;;;;;;;;;;;;5050967;28;19920;-62
2024/04/06 11:13:13;;;;;;;;;;;;;;;;;;5034520;28;19921;-63
2024/04/06 11:15:39;;;;;;;;;;;;;;;;;;5043818;28;19925;-62
2024/04/06 11:18:05;;;;;;;;;;;;;;;;;;5043283;28;19925;-62
2024/04/06 11:20:32;;;;;;;;;;;;;;;;;;5049128;28;19921;-62
2024/04/06 11:22:58;;;;;;;;;;;;;;;;;;5049938;28;19929;-62
2024/04/06 11:25:26;;;;;;;;;;;;;;;;;;5033530;28;19929;-62
2024/04/06 11:27:51;;;;;;;;;;;;;;;;;;5030496;28;19925;-62
2024/04/06 11:30:17;;;;;;;;;;;;;;;;;;5045501;28;20367;-62
2024/04/06 11:32:43;;;;;;;;;;;;;;;;;;5033313;28;19928;-62
2024/04/06 11:35:09;;;;;;;;;;;;;;;;;;5037426;28;20023;-62
2024/04/06 11:37:35;;;;;;;;;;;;;;;;;;5035342;28;20024;-62
2024/04/06 11:40:01;;;;;;;;;;;;;;;;;;5037898;28;20394;-61
2024/04/06 11:42:27;;;;;;;;;;;;;;;;;;5037641;28;20281;-62
2024/04/06 11:44:53;;;;;;;;;;;;;;;;;;5040058;28;20650;-62
2024/04/06 11:47:19;;;;;;;;;;;;;;;;;;5035329;28;19936;-62
2024/04/06 11:49:45;;;;;;;;;;;;;;;;;;5026798;28;19928;-62
2024/04/06 11:52:11;;;;;;;;;;;;;;;;;;5036937;28;20476;-62
2024/04/06 11:54:37;;;;;;;;;;;;;;;;;;5055043;28;19939;-62
2024/04/06 11:57:02;;;;;;;;;;;;;;;;;;5054694;28;19931;-62
2024/04/06 11:59:28;;;;;;;;;;;;;;;;;;5054610;28;20414;-62
2024/04/06 12:01:54;;;;;;;;;;;;;;;;;;5053060;28;19956;-62
2024/04/06 12:04:21;;;;;;;;;;;;;;;;;;5049558;28;19927;-63
2024/04/06 12:06:47;;;;;;;;;;;;;;;;;;5050389;28;19932;-62
2024/04/06 12:09:13;;;;;;;;;;;;;;;;;;5055073;28;19925;-63
2024/04/06 12:11:39;;;;;;;;;;;;;;;;;;5054787;28;19924;-63
2024/04/06 12:14:05;;;;;;;;;;;;;;;;;;5056578;28;19925;-63
2024/04/06 12:16:31;;;;;;;;;;;;;;;;;;5049015;28;19921;-63
2024/04/06 12:18:57;;;;;;;;;;;;;;;;;;5048723;28;19999;-63
2024/04/06 12:21:23;;;;;;;;;;;;;;;;;;5044548;28;20019;-63
2024/04/06 12:23:49;;;;;;;;;;;;;;;;;;5048873;28;19928;-63
2024/04/06 12:26:15;;;;;;;;;;;;;;;;;;5054122;28;19925;-63
2024/04/06 12:28:41;;;;;;;;;;;;;;;;;;5054218;28;20755;-62
2024/04/06 12:31:07;;;;;;;;;;;;;;;;;;5054299;28;19932;-62
2024/04/06 12:33:33;;;;;;;;;;;;;;;;;;5049457;28;19920;-63
2024/04/06 12:35:59;;;;;;;;;;;;;;;;;;5028750;28;19921;-63
2024/04/06 12:38:24;;;;;;;;;;;;;;;;;;5051556;28;19975;-63
2024/04/06 12:40:50;;;;;;;;;;;;;;;;;;5051468;28;19924;-63
2024/04/06 12:43:16;;;;;;;;;;;;;;;;;;5052961;28;19932;-63
2024/04/06 12:45:42;;;;;;;;;;;;;;;;;;5053828;28;19925;-63
2024/04/06 12:48:08;;;;;;;;;;;;;;;;;;5052422;28;19931;-64
2024/04/06 12:50:34;;;;;;;;;;;;;;;;;;5040700;28;19928;-63
2024/04/06 12:53:00;;;;;;;;;;;;;;;;;;5053296;28;19921;-63
2024/04/06 12:55:26;;;;;;;;;;;;;;;;;;5036163;28;19929;-63
2024/04/06 12:57:52;;;;;;;;;;;;;;;;;;5051931;28;19924;-63
2024/04/06 13:00:18;;;;;;;;;;;;;;;;;;5052500;28;19924;-63
2024/04/06 13:02:44;;;;;;;;;;;;;;;;;;5050628;28;20280;-63
2024/04/06 13:05:10;;;;;;;;;;;;;;;;;;5037441;28;19925;-63
2024/04/06 13:07:36;;;;;;;;;;;;;;;;;;5051412;28;19948;-63
2024/04/06 13:10:06;;;;;;;;;;;;;;;;;;5053894;28;19921;-63
2024/04/06 13:12:32;;;;;;;;;;;;;;;;;;5051986;28;19921;-63
2024/04/06 13:14:58;;;;;;;;;;;;;;;;;;5035709;28;19925;-64
2024/04/06 13:17:24;;;;;;;;;;;;;;;;;;5045762;28;20571;-63
2024/04/06 13:19:50;;;;;;;;;;;;;;;;;;5039179;28;20484;-64
2024/04/06 13:22:16;;;;;;;;;;;;;;;;;;5049878;28;19979;-64
2024/04/06 13:24:42;;;;;;;;;;;;;;;;;;5044184;28;20011;-63
2024/04/06 13:27:08;;;;;;;;;;;;;;;;;;5044917;28;19971;-63
2024/04/06 13:29:34;;;;;;;;;;;;;;;;;;5023892;28;19928;-62
2024/04/06 13:32:00;;;;;;;;;;;;;;;;;;5051075;28;19955;-63
2024/04/06 13:34:26;;;;;;;;;;;;;;;;;;5026956;28;20380;-64
2024/04/06 13:36:52;;;;;;;;;;;;;;;;;;5049946;28;19924;-64
2024/04/06 13:39:19;;;;;;;;;;;;;;;;;;5054042;28;19970;-64
2024/04/06 13:41:45;;;;;;;;;;;;;;;;;;5073180;28;19920;-64
2024/04/06 13:44:12;;;;;;;;;;;;;;;;;;5050312;28;20366;-67
2024/04/06 13:46:37;;;;;;;;;;;;;;;;;;5033527;28;20380;-64
2024/04/06 13:49:03;;;;;;;;;;;;;;;;;;5046264;28;19921;-64
2024/04/06 13:51:29;;;;;;;;;;;;;;;;;;5030864;28;20402;-64
2024/04/06 13:53:55;;;;;;;;;;;;;;;;;;5045584;28;19925;-64
2024/04/06 13:56:21;;;;;;;;;;;;;;;;;;5041798;28;19944;-64
2024/04/06 13:58:49;;;;;;;;;;;;;;;;;;5016062;28;20557;-64
2024/04/06 14:01:15;;;;;;;;;;;;;;;;;;5034134;28;19929;-64
2024/04/06 14:03:41;;;;;;;;;;;;;;;;;;5044166;28;19991;-65
2024/04/06 14:06:07;;;;;;;;;;;;;;;;;;5036107;28;20607;-65
2024/04/06 14:08:33;;;;;;;;;;;;;;;;;;5038236;28;19929;-65
2024/04/06 14:10:59;;;;;;;;;;;;;;;;;;5034370;28;19968;-63
2024/04/06 14:13:26;;;;;;;;;;;;;;;;;;5037042;28;19924;-64
2024/04/06 14:15:53;;;;;;;;;;;;;;;;;;5043616;28;20376;-64
2024/04/06 14:18:18;;;;;;;;;;;;;;;;;;5032042;28;19982;-64
2024/04/06 14:20:44;;;;;;;;;;;;;;;;;;5029156;28;19924;-64
2024/04/06 14:23:10;;;;;;;;;;;;;;;;;;5035982;28;19986;-63
2024/04/06 14:25:36;;;;;;;;;;;;;;;;;;5034858;28;21224;-63
2024/04/06 14:28:02;;;;;;;;;;;;;;;;;;5032574;28;19954;-63
2024/04/06 14:30:28;;;;;;;;;;;;;;;;;;5037766;28;19925;-63
2024/04/06 14:32:54;;;;;;;;;;;;;;;;;;5019079;28;19928;-63
2024/04/06 14:35:20;;;;;;;;;;;;;;;;;;5036888;28;19967;-63
2024/04/06 14:37:46;;;;;;;;;;;;;;;;;;5032607;28;19936;-63
2024/04/06 14:40:12;;;;;;;;;;;;;;;;;;5034616;28;19925;-64
2024/04/06 14:42:38;;;;;;;;;;;;;;;;;;5041478;28;19927;-64
2024/04/06 14:45:04;;;;;;;;;;;;;;;;;;5030957;28;19998;-63
2024/04/06 14:47:30;;;;;;;;;;;;;;;;;;5035359;28;19936;-64
2024/04/06 14:49:55;;;;;;;;;;;;;;;;;;5040494;28;19932;-64
2024/04/06 14:52:22;;;;;;;;;;;;;;;;;;5044090;28;20214;-64
2024/04/06 14:54:50;;;;;;;;;;;;;;;;;;5049235;28;19987;-64
2024/04/06 14:57:16;;;;;;;;;;;;;;;;;;5049673;28;19975;-64
2024/04/06 14:59:42;;;;;;;;;;;;;;;;;;5027041;28;20280;-63
2024/04/06 15:02:08;;;;;;;;;;;;;;;;;;5045678;28;19956;-64
2024/04/06 15:04:34;;;;;;;;;;;;;;;;;;5048643;28;20418;-64
2024/04/06 15:07:00;;;;;;;;;;;;;;;;;;5051510;28;19985;-64
2024/04/06 15:09:26;;;;;;;;;;;;;;;;;;5054337;28;20011;-64
2024/04/06 15:11:52;;;;;;;;;;;;;;;;;;5055449;28;20346;-64
2024/04/06 15:14:18;;;;;;;;;;;;;;;;;;5055428;28;19924;-64
2024/04/06 15:16:44;;;;;;;;;;;;;;;;;;5055487;28;20003;-64
2024/04/06 15:19:12;;;;;;;;;;;;;;;;;;5043195;28;21942;-64
2024/04/06 15:21:38;;;;;;;;;;;;;;;;;;5051690;28;19952;-64
2024/04/06 15:24:04;;;;;;;;;;;;;;;;;;5053528;28;20011;-64
2024/04/06 15:26:29;;;;;;;;;;;;;;;;;;5033128;28;20075;-64
2024/04/06 15:28:55;;;;;;;;;;;;;;;;;;5017481;28;20364;-64
2024/04/06 15:31:21;;;;;;;;;;;;;;;;;;5034988;28;19922;-64
2024/04/06 15:33:47;;;;;;;;;;;;;;;;;;5049774;28;19927;-65
2024/04/06 15:36:13;;;;;;;;;;;;;;;;;;5035233;28;19921;-65
2024/04/06 15:38:39;;;;;;;;;;;;;;;;;;5042226;28;19924;-65
2024/04/06 15:41:05;;;;;;;;;;;;;;;;;;5054635;28;19921;-65
2024/04/06 15:43:31;;;;;;;;;;;;;;;;;;5053374;28;19932;-63
2024/04/06 15:45:57;;;;;;;;;;;;;;;;;;5047550;28;20684;-64
2024/04/06 15:48:23;;;;;;;;;;;;;;;;;;5053333;28;20419;-64
2024/04/06 15:50:49;;;;;;;;;;;;;;;;;;5045567;28;19920;-64
2024/04/06 15:53:15;;;;;;;;;;;;;;;;;;5045680;28;19920;-65
2024/04/06 15:55:41;;;;;;;;;;;;;;;;;;5034148;28;20402;-63
2024/04/06 15:58:07;;;;;;;;;;;;;;;;;;5054039;28;19935;-63
2024/04/06 16:00:33;;;;;;;;;;;;;;;;;;5044030;28;20015;-64
2024/04/06 16:02:59;;;;;;;;;;;;;;;;;;5050733;28;19921;-67
2024/04/06 16:05:25;;;;;;;;;;;;;;;;;;5050380;28;19924;-65
2024/04/06 16:07:51;;;;;;;;;;;;;;;;;;5051224;28;19921;-64
2024/04/06 16:10:17;;;;;;;;;;;;;;;;;;5031192;23;19923;-66
2024/04/06 16:12:43;;;;;;;;;;;;;;;;;;5039382;28;19921;-66
2024/04/06 16:15:08;;;;;;;;;;;;;;;;;;5054695;28;20291;-65
2024/04/06 16:17:34;;;;;;;;;;;;;;;;;;5035540;28;19929;-66
2024/04/06 16:20:00;;;;;;;;;;;;;;;;;;5028673;28;20339;-65
2024/04/06 16:22:28;;;;;;;;;;;;;;;;;;5052512;28;19928;-65
2024/04/06 16:24:54;;;;;;;;;;;;;;;;;;5055387;28;19931;-65
2024/04/06 16:27:20;;;;;;;;;;;;;;;;;;5043978;28;19924;-65
2024/04/06 16:29:46;;;;;;;;;;;;;;;;;;5041844;28;20256;-66
2024/04/06 16:32:12;;;;;;;;;;;;;;;;;;5061854;28;19995;-66
2024/04/06 16:34:39;;;;;;;;;;;;;;;;;;5064811;28;20746;-65
2024/04/06 16:37:05;;;;;;;;;;;;;;;;;;5035103;28;19958;-65